Sandra Hugh — WDD9019 — position and weather

sailwx.info

Track history (hours):
 
Tides and Currents Weather Stations Pressure Air Temp Water Temp Dewpoint Dewpoint Depression Visibility Wind Speed Wind Dir Waves Ship Positions

Sandra Hugh

Owner: Sortwell Inc., DBA AmNav Maritime Services, Oakland, CA. More information available from US FCC via Universal Licensing System and Coast Guard Vessel Documentation Center.

Last reported at 2015-May-24 02:33 UTC. Time now 2015-May-24 03:10 UTC.
Position N 37°49' W 122°19'.

Length 24 m; draft 4.9 m.

Type: Tug. MMSI: 367305920.

Date/timePositionNaut miles runAvg speedWind from/ knotsBaromVisibWave heightAir tempDewpointWater temp
2015-May-24 02:33N 37°49' W 122°19'2 1.8
2015-May-24 01:33N 37°48' W 122°21'2 2.4
2015-May-24 00:33N 37°48' W 122°18'1 0.9
2015-May-23 23:34N 37°48' W 122°19'2 1.7
2015-May-23 22:33N 37°49' W 122°19'0 0.0
2015-May-23 21:33N 37°49' W 122°19'0 0.0
2015-May-23 20:33N 37°49' W 122°19'0 0.0
2015-May-23 19:33N 37°49' W 122°19'0 0.0
2015-May-23 18:33N 37°49' W 122°19'0 0.0
2015-May-23 17:33N 37°49' W 122°19'1 0.6
2015-May-23 16:33N 37°49' W 122°19'0 0.1
2015-May-23 15:33N 37°49' W 122°19'0 0.0
2015-May-23 14:33N 37°49' W 122°19'1 1.0
2015-May-23 13:33N 37°49' W 122°20'1 0.7
2015-May-23 12:33N 37°49' W 122°20'0 0.1
2015-May-23 11:33N 37°49' W 122°19'1 0.7
2015-May-23 10:33N 37°49' W 122°19'0 0.0
2015-May-23 09:33N 37°49' W 122°19'0 0.0
2015-May-23 08:33N 37°49' W 122°19'0 0.0
2015-May-23 07:33N 37°49' W 122°19'0 0.0
2015-May-23 06:33N 37°49' W 122°19'0 0.0
2015-May-23 05:33N 37°49' W 122°19'0 0.0
2015-May-23 04:33N 37°49' W 122°19'0 0.0
2015-May-23 03:33N 37°49' W 122°19'0 0.0
2015-May-23 02:33N 37°49' W 122°19'0 0.0
2015-May-23 01:33N 37°49' W 122°19'4 4.3
2015-May-23 00:33N 37°48' W 122°24'3 2.7
2015-May-22 23:33N 37°48' W 122°21'2 1.9
2015-May-22 22:33N 37°48' W 122°18'1 1.0
2015-May-22 21:33N 37°48' W 122°20'2 1.6
2015-May-22 20:33N 37°49' W 122°19'0 0.0
2015-May-22 19:33N 37°49' W 122°19'0 0.0
2015-May-22 18:33N 37°49' W 122°19'0 0.0
2015-May-22 17:33N 37°49' W 122°19'0 0.0
2015-May-22 16:33N 37°49' W 122°19'0 0.0
2015-May-22 15:33N 37°49' W 122°19'0 0.0
2015-May-22 14:33N 37°49' W 122°19'1 1.0
2015-May-22 13:33N 37°49' W 122°20'1 0.5
2015-May-22 12:33N 37°49' W 122°20'1 1.4
2015-May-22 11:33N 37°49' W 122°19'0 0.0
2015-May-22 10:33N 37°49' W 122°19'0 0.0
2015-May-22 09:33N 37°49' W 122°19'0 0.0
2015-May-22 08:33N 37°49' W 122°19'0 0.0
2015-May-22 07:33N 37°49' W 122°19'0 0.0
2015-May-22 06:33N 37°49' W 122°19'0 0.0
2015-May-22 05:33N 37°49' W 122°19'0 0.0
2015-May-22 04:33N 37°49' W 122°19'0 0.0
2015-May-22 03:33N 37°49' W 122°19'0 0.0
2015-May-22 02:33N 37°49' W 122°19'0 0.0
2015-May-22 01:33N 37°49' W 122°19'0 0.5
2015-May-22 00:33N 37°49' W 122°19'2 1.9
2015-May-21 23:33N 37°48' W 122°21'2 2.3
2015-May-21 22:33N 37°49' W 122°19'0 0.0
2015-May-21 21:33N 37°49' W 122°19'5 4.8
2015-May-21 20:33N 37°46' W 122°23'5 4.7
2015-May-21 19:33N 37°49' W 122°19'0 0.0
2015-May-21 18:33N 37°49' W 122°19'1 0.7
2015-May-21 17:33N 37°49' W 122°19'1 1.3
2015-May-21 16:33N 37°48' W 122°21'1 0.8
2015-May-21 15:33N 37°48' W 122°22'3 2.7
2015-May-21 14:33N 37°49' W 122°19'0 0.0
2015-May-21 13:34N 37°49' W 122°19'0 0.0
2015-May-21 12:33N 37°49' W 122°19'0 0.0
2015-May-21 11:33N 37°49' W 122°19'0 0.0
2015-May-21 10:32N 37°49' W 122°19'0 0.0
2015-May-21 09:33N 37°49' W 122°19'0 0.0
2015-May-21 08:33N 37°49' W 122°19'1 1.3
2015-May-21 07:33N 37°49' W 122°20'7 7.4
2015-May-21 06:33N 37°55' W 122°25'0 0.1
2015-May-21 05:32N 37°55' W 122°25'1 1.4
2015-May-21 04:33N 37°54' W 122°23'0 0.0
2015-May-21 03:34N 37°54' W 122°23'0 0.0
2015-May-21 02:33N 37°54' W 122°23'2 1.8
2015-May-21 01:32N 37°56' W 122°25'0 0.3
2015-May-21 00:33N 37°55' W 122°25'2 1.6
2015-May-20 23:34N 37°54' W 122°23'0 0.0
2015-May-20 22:33N 37°54' W 122°23'0 0.0
2015-May-20 21:33N 37°54' W 122°23'0 0.0
2015-May-20 20:33N 37°54' W 122°23'9 6.9
2015-May-20 19:17N 38°03' W 122°19'5 0.2
2015-May-19 17:23N 38°04' W 122°13'7 8.9
2015-May-19 16:33N 38°02' W 122°22'7 7.4
2015-May-19 15:34N 37°54' W 122°24'1 0.5
2015-May-19 14:26N 37°54' W 122°23'0 0.0
2015-May-19 13:33N 37°54' W 122°23'0 0.0
2015-May-19 12:33N 37°54' W 122°23'0 0.0
2015-May-19 11:33N 37°54' W 122°23'0 0.0
2015-May-19 10:32N 37°54' W 122°23'0 0.0
2015-May-19 09:33N 37°54' W 122°23'0 0.0
2015-May-19 08:34N 37°54' W 122°23'1 1.1
2015-May-19 07:34N 37°54' W 122°22'1 1.0
2015-May-19 06:33N 37°55' W 122°22'6 5.8
2015-May-19 05:33N 37°49' W 122°22'2 2.2
2015-May-19 04:33N 37°49' W 122°19'0 0.0
2015-May-19 03:33N 37°49' W 122°19'0 0.0
2015-May-19 02:33N 37°49' W 122°19'0 0.0
2015-May-19 01:33N 37°49' W 122°19'0 0.0
2015-May-19 00:33N 37°49' W 122°19'7 6.8
2015-May-18 23:33N 37°54' W 122°25'0 0.2
2015-May-18 22:12N 37°54' W 122°25'1 1.5
2015-May-18 21:34N 37°53' W 122°25'3 2.8
2015-May-18 20:34N 37°54' W 122°22'1 1.0
2015-May-18 19:33N 37°54' W 122°23'6 6.0
2015-May-18 18:33N 37°49' W 122°20'1 0.9
2015-May-18 17:33N 37°49' W 122°19'0 0.0
2015-May-18 16:33N 37°49' W 122°19'0 0.0
2015-May-18 15:33N 37°49' W 122°19'0 0.0
2015-May-18 14:33N 37°49' W 122°19'0 0.0
2015-May-18 13:33N 37°49' W 122°19'0 0.0
2015-May-18 12:33N 37°49' W 122°19'0 0.0
2015-May-18 11:33N 37°49' W 122°19'0 0.0
2015-May-18 10:33N 37°49' W 122°19'0 0.0
2015-May-18 09:33N 37°49' W 122°19'0 0.0
2015-May-18 08:33N 37°49' W 122°19'2 1.6
2015-May-18 07:33N 37°49' W 122°20'0 0.1
2015-May-18 06:33N 37°49' W 122°20'2 1.6
2015-May-18 05:33N 37°49' W 122°19'0 0.0
2015-May-18 04:33N 37°49' W 122°19'0 0.0
2015-May-18 03:33N 37°49' W 122°19'0 0.0
2015-May-18 02:33N 37°49' W 122°19'0 0.0
2015-May-18 01:33N 37°49' W 122°19'0 0.0
2015-May-18 00:33N 37°49' W 122°19'0 0.0
2015-May-17 23:34N 37°49' W 122°19'0 0.0
2015-May-17 22:34N 37°49' W 122°19'0 0.0
2015-May-17 21:33N 37°49' W 122°19'0 0.0
2015-May-17 20:33N 37°49' W 122°19'0 0.0
2015-May-17 19:33N 37°49' W 122°19'0 0.0
2015-May-17 18:33N 37°49' W 122°19'0 0.0
2015-May-17 17:33N 37°49' W 122°19'0 0.0
2015-May-17 16:33N 37°49' W 122°19'0 0.0
2015-May-17 15:33N 37°49' W 122°19'0 0.0
2015-May-17 14:33N 37°49' W 122°19'0 0.0
2015-May-17 13:33N 37°49' W 122°19'0 0.0
2015-May-17 12:33N 37°49' W 122°19'0 0.0
2015-May-17 11:34N 37°49' W 122°19'0 0.0
2015-May-17 10:33N 37°49' W 122°19'0 0.0
2015-May-17 09:33N 37°49' W 122°19'0 0.0
2015-May-17 08:33N 37°49' W 122°19'0 0.0
2015-May-17 07:33N 37°49' W 122°19'0 0.0
2015-May-17 06:33N 37°49' W 122°19'0 0.0
2015-May-17 05:33N 37°49' W 122°19'0 0.0
2015-May-17 04:33N 37°49' W 122°19'0 0.0
2015-May-17 03:33N 37°49' W 122°19'0 0.0
2015-May-17 02:33N 37°49' W 122°19'0 0.0
2015-May-17 01:33N 37°49' W 122°19'1 1.4
2015-May-17 00:33N 37°49' W 122°20'1 0.8
2015-May-16 23:33N 37°49' W 122°19'1 0.6
2015-May-16 22:33N 37°49' W 122°19'0 0.0
2015-May-16 21:32N 37°49' W 122°19'0 0.0
2015-May-16 20:33N 37°49' W 122°19'0 0.0
2015-May-16 17:19N 37°49' W 122°19'0 0.0
2015-May-16 16:33N 37°49' W 122°19'0 0.0
2015-May-16 15:33N 37°49' W 122°19'1 0.9
2015-May-16 14:33N 37°49' W 122°20'1 0.6
2015-May-16 13:33N 37°49' W 122°20'0 0.5
2015-May-16 12:33N 37°49' W 122°20'1 0.7
2015-May-16 11:34N 37°48' W 122°21'2 1.7
2015-May-16 10:33N 37°49' W 122°19'0 0.0
2015-May-16 09:33N 37°49' W 122°19'0 0.0
2015-May-16 08:33N 37°49' W 122°19'0 0.0
2015-May-16 07:28N 37°49' W 122°19'0 0.0
2015-May-16 06:33N 37°49' W 122°19'0 0.0
2015-May-16 05:31N 37°49' W 122°19'0 0.0
2015-May-16 04:34N 37°49' W 122°19'0 0.0
2015-May-16 03:33N 37°49' W 122°19'0 0.0
2015-May-16 00:33N 37°49' W 122°19'0 0.0
2015-May-15 23:33N 37°49' W 122°19'7 7.1
2015-May-15 22:33N 37°42' W 122°20'1212.1
2015-May-15 21:33N 37°32' W 122°12'2 1.5
2015-May-15 20:26N 37°31' W 122°13'4 4.6
2015-May-15 19:33N 37°35' W 122°14'1010.1
2015-May-15 18:31N 37°44' W 122°21'5 5.7
2015-May-15 17:33N 37°49' W 122°19'1 1.1
2015-May-15 16:33N 37°48' W 122°20'3 3.4
2015-May-15 15:33N 37°47' W 122°15'4 4.4
2015-May-15 14:33N 37°48' W 122°21'2 2.0
2015-May-15 13:33N 37°49' W 122°19'0 0.0
2015-May-15 12:32N 37°49' W 122°19'0 0.0
2015-May-15 11:33N 37°49' W 122°19'0 0.0
2015-May-15 10:33N 37°49' W 122°19'0 0.0
2015-May-15 09:33N 37°49' W 122°19'0 0.0
2015-May-15 08:33N 37°49' W 122°19'0 0.0
2015-May-15 07:33N 37°49' W 122°19'0 0.0
2015-May-15 06:33N 37°49' W 122°19'1 0.6
2015-May-15 05:33N 37°49' W 122°19'2 2.4
2015-May-15 04:33N 37°47' W 122°22'1 1.3
2015-May-15 03:33N 37°48' W 122°21'1 0.9
2015-May-15 02:32N 37°49' W 122°20'1 1.0
2015-May-15 01:33N 37°49' W 122°19'0 0.0
2015-May-15 00:33N 37°49' W 122°19'0 0.0
2015-May-14 23:33N 37°49' W 122°19'0 0.0
2015-May-14 22:33N 37°49' W 122°19'1 1.0
2015-May-14 21:33N 37°49' W 122°20'1 1.0
2015-May-14 20:33N 37°49' W 122°19'0 0.0
2015-May-14 19:33N 37°49' W 122°19'0 0.0
2015-May-14 18:33N 37°49' W 122°19'0 0.0
2015-May-14 17:33N 37°49' W 122°19'0 0.0
2015-May-14 16:33N 37°49' W 122°19'0 0.0
2015-May-14 15:33N 37°49' W 122°19'0 0.0
2015-May-14 14:33N 37°49' W 122°19'7 6.7
2015-May-14 13:33N 37°54' W 122°25'2 2.3
2015-May-14 12:33N 37°54' W 122°22'1 1.3
2015-May-14 11:33N 37°54' W 122°23'1 1.0
2015-May-14 10:33N 37°55' W 122°24'2 2.1
2015-May-14 09:33N 37°55' W 122°22'0 0.0
2015-May-14 08:32N 37°55' W 122°22'0 0.0
2015-May-14 07:33N 37°55' W 122°22'0 0.0
2015-May-14 06:33N 37°55' W 122°22'0 0.0
2015-May-14 05:33N 37°55' W 122°22'0 0.1
2015-May-14 04:25N 37°55' W 122°22'0 0.6
2015-May-14 03:33N 37°55' W 122°22'  
Track history (hours):
 
Tides and Currents Weather Stations Pressure Air Temp Water Temp Dewpoint Dewpoint Depression Visibility Wind Speed Wind Dir Waves Ship Positions

Sandra Hugh

Owner: Sortwell Inc., DBA AmNav Maritime Services, Oakland, CA. More information available from US FCC via Universal Licensing System and Coast Guard Vessel Documentation Center.

Last reported at 2015-May-24 02:33 UTC. Time now 2015-May-24 03:10 UTC.
Position N 37°49' W 122°19'.

Length 24 m; draft 4.9 m.

Type: Tug. MMSI: 367305920.

Date/timePositionNaut miles runAvg speedWind from/ knotsBaromVisibWave heightAir tempDewpointWater temp
2015-May-24 02:33N 37°49' W 122°19'2 1.8
2015-May-24 01:33N 37°48' W 122°21'2 2.4
2015-May-24 00:33N 37°48' W 122°18'1 0.9
2015-May-23 23:34N 37°48' W 122°19'2 1.7
2015-May-23 22:33N 37°49' W 122°19'0 0.0
2015-May-23 21:33N 37°49' W 122°19'0 0.0
2015-May-23 20:33N 37°49' W 122°19'0 0.0
2015-May-23 19:33N 37°49' W 122°19'0 0.0
2015-May-23 18:33N 37°49' W 122°19'0 0.0
2015-May-23 17:33N 37°49' W 122°19'1 0.6
2015-May-23 16:33N 37°49' W 122°19'0 0.1
2015-May-23 15:33N 37°49' W 122°19'0 0.0
2015-May-23 14:33N 37°49' W 122°19'1 1.0
2015-May-23 13:33N 37°49' W 122°20'1 0.7
2015-May-23 12:33N 37°49' W 122°20'0 0.1
2015-May-23 11:33N 37°49' W 122°19'1 0.7
2015-May-23 10:33N 37°49' W 122°19'0 0.0
2015-May-23 09:33N 37°49' W 122°19'0 0.0
2015-May-23 08:33N 37°49' W 122°19'0 0.0
2015-May-23 07:33N 37°49' W 122°19'0 0.0
2015-May-23 06:33N 37°49' W 122°19'0 0.0
2015-May-23 05:33N 37°49' W 122°19'0 0.0
2015-May-23 04:33N 37°49' W 122°19'0 0.0
2015-May-23 03:33N 37°49' W 122°19'0 0.0
2015-May-23 02:33N 37°49' W 122°19'0 0.0
2015-May-23 01:33N 37°49' W 122°19'4 4.3
2015-May-23 00:33N 37°48' W 122°24'3 2.7
2015-May-22 23:33N 37°48' W 122°21'2 1.9
2015-May-22 22:33N 37°48' W 122°18'1 1.0
2015-May-22 21:33N 37°48' W 122°20'2 1.6
2015-May-22 20:33N 37°49' W 122°19'0 0.0
2015-May-22 19:33N 37°49' W 122°19'0 0.0
2015-May-22 18:33N 37°49' W 122°19'0 0.0
2015-May-22 17:33N 37°49' W 122°19'0 0.0
2015-May-22 16:33N 37°49' W 122°19'0 0.0
2015-May-22 15:33N 37°49' W 122°19'0 0.0
2015-May-22 14:33N 37°49' W 122°19'1 1.0
2015-May-22 13:33N 37°49' W 122°20'1 0.5
2015-May-22 12:33N 37°49' W 122°20'1 1.4
2015-May-22 11:33N 37°49' W 122°19'0 0.0
2015-May-22 10:33N 37°49' W 122°19'0 0.0
2015-May-22 09:33N 37°49' W 122°19'0 0.0
2015-May-22 08:33N 37°49' W 122°19'0 0.0
2015-May-22 07:33N 37°49' W 122°19'0 0.0
2015-May-22 06:33N 37°49' W 122°19'0 0.0
2015-May-22 05:33N 37°49' W 122°19'0 0.0
2015-May-22 04:33N 37°49' W 122°19'0 0.0
2015-May-22 03:33N 37°49' W 122°19'0 0.0
2015-May-22 02:33N 37°49' W 122°19'0 0.0
2015-May-22 01:33N 37°49' W 122°19'0 0.5
2015-May-22 00:33N 37°49' W 122°19'2 1.9
2015-May-21 23:33N 37°48' W 122°21'2 2.3
2015-May-21 22:33N 37°49' W 122°19'0 0.0
2015-May-21 21:33N 37°49' W 122°19'5 4.8
2015-May-21 20:33N 37°46' W 122°23'5 4.7
2015-May-21 19:33N 37°49' W 122°19'0 0.0
2015-May-21 18:33N 37°49' W 122°19'1 0.7
2015-May-21 17:33N 37°49' W 122°19'1 1.3
2015-May-21 16:33N 37°48' W 122°21'1 0.8
2015-May-21 15:33N 37°48' W 122°22'3 2.7
2015-May-21 14:33N 37°49' W 122°19'0 0.0
2015-May-21 13:34N 37°49' W 122°19'0 0.0
2015-May-21 12:33N 37°49' W 122°19'0 0.0
2015-May-21 11:33N 37°49' W 122°19'0 0.0
2015-May-21 10:32N 37°49' W 122°19'0 0.0
2015-May-21 09:33N 37°49' W 122°19'0 0.0
2015-May-21 08:33N 37°49' W 122°19'1 1.3
2015-May-21 07:33N 37°49' W 122°20'7 7.4
2015-May-21 06:33N 37°55' W 122°25'0 0.1
2015-May-21 05:32N 37°55' W 122°25'1 1.4
2015-May-21 04:33N 37°54' W 122°23'0 0.0
2015-May-21 03:34N 37°54' W 122°23'0 0.0
2015-May-21 02:33N 37°54' W 122°23'2 1.8
2015-May-21 01:32N 37°56' W 122°25'0 0.3
2015-May-21 00:33N 37°55' W 122°25'2 1.6
2015-May-20 23:34N 37°54' W 122°23'0 0.0
2015-May-20 22:33N 37°54' W 122°23'0 0.0
2015-May-20 21:33N 37°54' W 122°23'0 0.0
2015-May-20 20:33N 37°54' W 122°23'9 6.9
2015-May-20 19:17N 38°03' W 122°19'5 0.2
2015-May-19 17:23N 38°04' W 122°13'7 8.9
2015-May-19 16:33N 38°02' W 122°22'7 7.4
2015-May-19 15:34N 37°54' W 122°24'1 0.5
2015-May-19 14:26N 37°54' W 122°23'0 0.0
2015-May-19 13:33N 37°54' W 122°23'0 0.0
2015-May-19 12:33N 37°54' W 122°23'0 0.0
2015-May-19 11:33N 37°54' W 122°23'0 0.0
2015-May-19 10:32N 37°54' W 122°23'0 0.0
2015-May-19 09:33N 37°54' W 122°23'0 0.0
2015-May-19 08:34N 37°54' W 122°23'1 1.1
2015-May-19 07:34N 37°54' W 122°22'1 1.0
2015-May-19 06:33N 37°55' W 122°22'6 5.8
2015-May-19 05:33N 37°49' W 122°22'2 2.2
2015-May-19 04:33N 37°49' W 122°19'0 0.0
2015-May-19 03:33N 37°49' W 122°19'0 0.0
2015-May-19 02:33N 37°49' W 122°19'0 0.0
2015-May-19 01:33N 37°49' W 122°19'0 0.0
2015-May-19 00:33N 37°49' W 122°19'7 6.8
2015-May-18 23:33N 37°54' W 122°25'0 0.2
2015-May-18 22:12N 37°54' W 122°25'1 1.5
2015-May-18 21:34N 37°53' W 122°25'3 2.8
2015-May-18 20:34N 37°54' W 122°22'1 1.0
2015-May-18 19:33N 37°54' W 122°23'6 6.0
2015-May-18 18:33N 37°49' W 122°20'1 0.9
2015-May-18 17:33N 37°49' W 122°19'0 0.0
2015-May-18 16:33N 37°49' W 122°19'0 0.0
2015-May-18 15:33N 37°49' W 122°19'0 0.0
2015-May-18 14:33N 37°49' W 122°19'0 0.0
2015-May-18 13:33N 37°49' W 122°19'0 0.0
2015-May-18 12:33N 37°49' W 122°19'0 0.0
2015-May-18 11:33N 37°49' W 122°19'0 0.0
2015-May-18 10:33N 37°49' W 122°19'0 0.0
2015-May-18 09:33N 37°49' W 122°19'0 0.0
2015-May-18 08:33N 37°49' W 122°19'2 1.6
2015-May-18 07:33N 37°49' W 122°20'0 0.1
2015-May-18 06:33N 37°49' W 122°20'2 1.6
2015-May-18 05:33N 37°49' W 122°19'0 0.0
2015-May-18 04:33N 37°49' W 122°19'0 0.0
2015-May-18 03:33N 37°49' W 122°19'0 0.0
2015-May-18 02:33N 37°49' W 122°19'0 0.0
2015-May-18 01:33N 37°49' W 122°19'0 0.0
2015-May-18 00:33N 37°49' W 122°19'0 0.0
2015-May-17 23:34N 37°49' W 122°19'0 0.0
2015-May-17 22:34N 37°49' W 122°19'0 0.0
2015-May-17 21:33N 37°49' W 122°19'0 0.0
2015-May-17 20:33N 37°49' W 122°19'0 0.0
2015-May-17 19:33N 37°49' W 122°19'0 0.0
2015-May-17 18:33N 37°49' W 122°19'0 0.0
2015-May-17 17:33N 37°49' W 122°19'0 0.0
2015-May-17 16:33N 37°49' W 122°19'0 0.0
2015-May-17 15:33N 37°49' W 122°19'0 0.0
2015-May-17 14:33N 37°49' W 122°19'0 0.0
2015-May-17 13:33N 37°49' W 122°19'0 0.0
2015-May-17 12:33N 37°49' W 122°19'0 0.0
2015-May-17 11:34N 37°49' W 122°19'0 0.0
2015-May-17 10:33N 37°49' W 122°19'0 0.0
2015-May-17 09:33N 37°49' W 122°19'0 0.0
2015-May-17 08:33N 37°49' W 122°19'0 0.0
2015-May-17 07:33N 37°49' W 122°19'0 0.0
2015-May-17 06:33N 37°49' W 122°19'0 0.0
2015-May-17 05:33N 37°49' W 122°19'0 0.0
2015-May-17 04:33N 37°49' W 122°19'0 0.0
2015-May-17 03:33N 37°49' W 122°19'0 0.0
2015-May-17 02:33N 37°49' W 122°19'0 0.0
2015-May-17 01:33N 37°49' W 122°19'1 1.4
2015-May-17 00:33N 37°49' W 122°20'1 0.8
2015-May-16 23:33N 37°49' W 122°19'1 0.6
2015-May-16 22:33N 37°49' W 122°19'0 0.0
2015-May-16 21:32N 37°49' W 122°19'0 0.0
2015-May-16 20:33N 37°49' W 122°19'0 0.0
2015-May-16 17:19N 37°49' W 122°19'0 0.0
2015-May-16 16:33N 37°49' W 122°19'0 0.0
2015-May-16 15:33N 37°49' W 122°19'1 0.9
2015-May-16 14:33N 37°49' W 122°20'1 0.6
2015-May-16 13:33N 37°49' W 122°20'0 0.5
2015-May-16 12:33N 37°49' W 122°20'1 0.7
2015-May-16 11:34N 37°48' W 122°21'2 1.7
2015-May-16 10:33N 37°49' W 122°19'0 0.0
2015-May-16 09:33N 37°49' W 122°19'0 0.0
2015-May-16 08:33N 37°49' W 122°19'0 0.0
2015-May-16 07:28N 37°49' W 122°19'0 0.0
2015-May-16 06:33N 37°49' W 122°19'0 0.0
2015-May-16 05:31N 37°49' W 122°19'0 0.0
2015-May-16 04:34N 37°49' W 122°19'0 0.0
2015-May-16 03:33N 37°49' W 122°19'0 0.0
2015-May-16 00:33N 37°49' W 122°19'0 0.0
2015-May-15 23:33N 37°49' W 122°19'7 7.1
2015-May-15 22:33N 37°42' W 122°20'1212.1
2015-May-15 21:33N 37°32' W 122°12'2 1.5
2015-May-15 20:26N 37°31' W 122°13'4 4.6
2015-May-15 19:33N 37°35' W 122°14'1010.1
2015-May-15 18:31N 37°44' W 122°21'5 5.7
2015-May-15 17:33N 37°49' W 122°19'1 1.1
2015-May-15 16:33N 37°48' W 122°20'3 3.4
2015-May-15 15:33N 37°47' W 122°15'4 4.4
2015-May-15 14:33N 37°48' W 122°21'2 2.0
2015-May-15 13:33N 37°49' W 122°19'0 0.0
2015-May-15 12:32N 37°49' W 122°19'0 0.0
2015-May-15 11:33N 37°49' W 122°19'0 0.0
2015-May-15 10:33N 37°49' W 122°19'0 0.0
2015-May-15 09:33N 37°49' W 122°19'0 0.0
2015-May-15 08:33N 37°49' W 122°19'0 0.0
2015-May-15 07:33N 37°49' W 122°19'0 0.0
2015-May-15 06:33N 37°49' W 122°19'1 0.6
2015-May-15 05:33N 37°49' W 122°19'2 2.4
2015-May-15 04:33N 37°47' W 122°22'1 1.3
2015-May-15 03:33N 37°48' W 122°21'1 0.9
2015-May-15 02:32N 37°49' W 122°20'1 1.0
2015-May-15 01:33N 37°49' W 122°19'0 0.0
2015-May-15 00:33N 37°49' W 122°19'0 0.0
2015-May-14 23:33N 37°49' W 122°19'0 0.0
2015-May-14 22:33N 37°49' W 122°19'1 1.0
2015-May-14 21:33N 37°49' W 122°20'1 1.0
2015-May-14 20:33N 37°49' W 122°19'0 0.0
2015-May-14 19:33N 37°49' W 122°19'0 0.0
2015-May-14 18:33N 37°49' W 122°19'0 0.0
2015-May-14 17:33N 37°49' W 122°19'0 0.0
2015-May-14 16:33N 37°49' W 122°19'0 0.0
2015-May-14 15:33N 37°49' W 122°19'0 0.0
2015-May-14 14:33N 37°49' W 122°19'7 6.7
2015-May-14 13:33N 37°54' W 122°25'2 2.3
2015-May-14 12:33N 37°54' W 122°22'1 1.3
2015-May-14 11:33N 37°54' W 122°23'1 1.0
2015-May-14 10:33N 37°55' W 122°24'2 2.1
2015-May-14 09:33N 37°55' W 122°22'0 0.0
2015-May-14 08:32N 37°55' W 122°22'0 0.0
2015-May-14 07:33N 37°55' W 122°22'0 0.0
2015-May-14 06:33N 37°55' W 122°22'0 0.0
2015-May-14 05:33N 37°55' W 122°22'0 0.1
2015-May-14 04:25N 37°55' W 122°22'0 0.6
2015-May-14 03:33N 37°55' W 122°22'  

Dump ship's entire track history